sensor_id;sensor_type;location;lat;lon;timestamp;pressure;altitude;pressure_sealevel;temperature;humidity
12182;BME280;6154;51.550;12.138;2023-07-31T00:00:14;100063.69;;;23.87;48.41
12182;BME280;6154;51.550;12.138;2023-07-31T00:02:42;100056.88;;;23.91;48.18
12182;BME280;6154;51.550;12.138;2023-07-31T00:05:12;100052.97;;;23.94;48.36
12182;BME280;6154;51.550;12.138;2023-07-31T00:07:40;100060.31;;;23.85;48.74
12182;BME280;6154;51.550;12.138;2023-07-31T00:10:09;100057.25;;;23.88;48.17
12182;BME280;6154;51.550;12.138;2023-07-31T00:12:38;100049.66;;;23.84;48.46
12182;BME280;6154;51.550;12.138;2023-07-31T00:15:06;100049.50;;;23.85;48.30
12182;BME280;6154;51.550;12.138;2023-07-31T00:17:35;100045.03;;;23.92;48.08
12182;BME280;6154;51.550;12.138;2023-07-31T00:20:04;100037.59;;;23.94;48.10
12182;BME280;6154;51.550;12.138;2023-07-31T00:22:33;100050.13;;;23.95;48.31
12182;BME280;6154;51.550;12.138;2023-07-31T00:25:03;100038.81;;;23.92;48.42
12182;BME280;6154;51.550;12.138;2023-07-31T00:27:33;100041.69;;;23.90;48.57
12182;BME280;6154;51.550;12.138;2023-07-31T00:30:02;100034.03;;;23.94;48.29
12182;BME280;6154;51.550;12.138;2023-07-31T00:32:32;100043.19;;;23.93;48.46
12182;BME280;6154;51.550;12.138;2023-07-31T00:35:00;100038.81;;;23.92;48.55
12182;BME280;6154;51.550;12.138;2023-07-31T00:37:30;100032.69;;;23.98;48.27
12182;BME280;6154;51.550;12.138;2023-07-31T00:39:59;100036.41;;;23.97;48.34
12182;BME280;6154;51.550;12.138;2023-07-31T00:42:30;100033.91;;;23.95;48.43
12182;BME280;6154;51.550;12.138;2023-07-31T00:44:59;100030.81;;;23.98;48.31
12182;BME280;6154;51.550;12.138;2023-07-31T00:47:30;100039.78;;;23.99;48.32
12182;BME280;6154;51.550;12.138;2023-07-31T00:49:58;100032.78;;;24.04;48.20
12182;BME280;6154;51.550;12.138;2023-07-31T00:52:26;100034.78;;;24.11;47.88
12182;BME280;6154;51.550;12.138;2023-07-31T00:54:55;100039.03;;;24.05;48.08
12182;BME280;6154;51.550;12.138;2023-07-31T00:57:26;100039.41;;;24.02;48.19
12182;BME280;6154;51.550;12.138;2023-07-31T00:59:54;100043.44;;;24.06;48.21
12182;BME280;6154;51.550;12.138;2023-07-31T01:02:22;100042.41;;;24.07;48.23
12182;BME280;6154;51.550;12.138;2023-07-31T01:04:52;100032.44;;;24.07;48.40
12182;BME280;6154;51.550;12.138;2023-07-31T01:07:24;100027.97;;;24.15;47.98
12182;BME280;6154;51.550;12.138;2023-07-31T01:10:00;100031.69;;;24.14;48.06
12182;BME280;6154;51.550;12.138;2023-07-31T01:12:31;100034.59;;;24.12;48.67
12182;BME280;6154;51.550;12.138;2023-07-31T01:15:04;100025.81;;;24.10;48.20
12182;BME280;6154;51.550;12.138;2023-07-31T01:17:34;100032.31;;;24.01;48.82
12182;BME280;6154;51.550;12.138;2023-07-31T01:20:04;100028.34;;;24.12;48.15
12182;BME280;6154;51.550;12.138;2023-07-31T01:22:48;100017.25;;;24.06;48.34
12182;BME280;6154;51.550;12.138;2023-07-31T01:25:31;100016.22;;;24.07;49.25
12182;BME280;6154;51.550;12.138;2023-07-31T01:28:11;100020.41;;;24.10;48.77
12182;BME280;6154;51.550;12.138;2023-07-31T01:30:43;100022.28;;;24.09;48.36
12182;BME280;6154;51.550;12.138;2023-07-31T01:33:14;100013.97;;;24.11;48.02
12182;BME280;6154;51.550;12.138;2023-07-31T01:35:44;100007.91;;;24.09;48.12
12182;BME280;6154;51.550;12.138;2023-07-31T01:38:13;100005.41;;;24.07;48.30
12182;BME280;6154;51.550;12.138;2023-07-31T01:40:41;100006.56;;;24.05;48.36
12182;BME280;6154;51.550;12.138;2023-07-31T01:43:11;99999.03;;;24.00;48.42
12182;BME280;6154;51.550;12.138;2023-07-31T01:45:40;99994.34;;;23.94;48.62
12182;BME280;6154;51.550;12.138;2023-07-31T01:48:08;99997.53;;;23.98;48.32
12182;BME280;6154;51.550;12.138;2023-07-31T01:50:36;100003.78;;;23.98;48.23
12182;BME280;6154;51.550;12.138;2023-07-31T01:53:04;99998.56;;;23.97;48.56
12182;BME280;6154;51.550;12.138;2023-07-31T01:55:32;99989.66;;;23.88;48.73
12182;BME280;6154;51.550;12.138;2023-07-31T01:58:00;99984.47;;;24.01;48.17
12182;BME280;6154;51.550;12.138;2023-07-31T02:00:30;99977.69;;;24.05;48.05
12182;BME280;6154;51.550;12.138;2023-07-31T02:02:59;99977.03;;;24.03;48.15
12182;BME280;6154;51.550;12.138;2023-07-31T02:05:27;99982.62;;;24.02;48.08
12182;BME280;6154;51.550;12.138;2023-07-31T02:07:55;99971.81;;;24.02;48.10
12182;BME280;6154;51.550;12.138;2023-07-31T02:10:26;99967.97;;;23.96;48.44
12182;BME280;6154;51.550;12.138;2023-07-31T02:12:54;99970.50;;;23.98;48.45
12182;BME280;6154;51.550;12.138;2023-07-31T02:15:24;99976.56;;;24.00;48.37
12182;BME280;6154;51.550;12.138;2023-07-31T02:17:54;99976.81;;;23.90;48.69
12182;BME280;6154;51.550;12.138;2023-07-31T02:20:22;99974.16;;;23.82;49.40
12182;BME280;6154;51.550;12.138;2023-07-31T02:22:50;99971.78;;;23.87;48.93
12182;BME280;6154;51.550;12.138;2023-07-31T02:25:19;99968.41;;;23.85;49.06
12182;BME280;6154;51.550;12.138;2023-07-31T02:27:47;99965.56;;;23.56;51.02
12182;BME280;6154;51.550;12.138;2023-07-31T02:30:15;99962.81;;;23.64;50.48
12182;BME280;6154;51.550;12.138;2023-07-31T02:32:44;99959.22;;;23.71;50.29
12182;BME280;6154;51.550;12.138;2023-07-31T02:35:13;99952.97;;;23.71;50.52
12182;BME280;6154;51.550;12.138;2023-07-31T02:37:42;99943.56;;;23.67;51.26
12182;BME280;6154;51.550;12.138;2023-07-31T02:40:11;99952.06;;;23.78;49.97
12182;BME280;6154;51.550;12.138;2023-07-31T02:42:39;99950.75;;;23.74;50.05
12182;BME280;6154;51.550;12.138;2023-07-31T02:45:08;99940.47;;;23.70;50.48
12182;BME280;6154;51.550;12.138;2023-07-31T02:47:37;99938.94;;;23.75;49.87
12182;BME280;6154;51.550;12.138;2023-07-31T02:50:06;99942.47;;;23.76;49.99
12182;BME280;6154;51.550;12.138;2023-07-31T02:52:35;99936.69;;;23.79;50.04
12182;BME280;6154;51.550;12.138;2023-07-31T02:55:04;99929.12;;;23.74;50.51
12182;BME280;6154;51.550;12.138;2023-07-31T02:57:32;99938.00;;;23.83;49.90
12182;BME280;6154;51.550;12.138;2023-07-31T03:00:00;99946.09;;;23.83;49.98
12182;BME280;6154;51.550;12.138;2023-07-31T03:02:32;99938.00;;;23.83;49.77
12182;BME280;6154;51.550;12.138;2023-07-31T03:05:01;99937.66;;;23.86;49.76
12182;BME280;6154;51.550;12.138;2023-07-31T03:07:29;99938.31;;;23.88;49.74
12182;BME280;6154;51.550;12.138;2023-07-31T03:09:59;99934.56;;;23.89;50.05
12182;BME280;6154;51.550;12.138;2023-07-31T03:12:28;99939.59;;;23.92;49.84
12182;BME280;6154;51.550;12.138;2023-07-31T03:14:56;99937.56;;;23.94;49.45
12182;BME280;6154;51.550;12.138;2023-07-31T03:17:24;99938.59;;;23.93;50.07
12182;BME280;6154;51.550;12.138;2023-07-31T03:19:52;99931.50;;;23.92;49.89
12182;BME280;6154;51.550;12.138;2023-07-31T03:22:20;99926.84;;;23.86;49.99
12182;BME280;6154;51.550;12.138;2023-07-31T03:24:48;99922.75;;;23.90;49.85
12182;BME280;6154;51.550;12.138;2023-07-31T03:27:18;99920.69;;;23.92;49.79
12182;BME280;6154;51.550;12.138;2023-07-31T03:29:46;99922.09;;;23.88;49.88
12182;BME280;6154;51.550;12.138;2023-07-31T03:32:16;99919.00;;;23.91;50.28
12182;BME280;6154;51.550;12.138;2023-07-31T03:34:44;99918.16;;;23.91;49.93
12182;BME280;6154;51.550;12.138;2023-07-31T03:37:13;99913.78;;;23.90;50.11
12182;BME280;6154;51.550;12.138;2023-07-31T03:39:41;99899.12;;;23.84;50.40
12182;BME280;6154;51.550;12.138;2023-07-31T03:42:09;99904.63;;;23.76;50.67
12182;BME280;6154;51.550;12.138;2023-07-31T03:44:38;99905.62;;;23.75;51.36
12182;BME280;6154;51.550;12.138;2023-07-31T03:47:08;99906.78;;;23.80;50.82
12182;BME280;6154;51.550;12.138;2023-07-31T03:49:37;99904.91;;;23.81;50.63
12182;BME280;6154;51.550;12.138;2023-07-31T03:52:05;99898.81;;;23.64;51.82
12182;BME280;6154;51.550;12.138;2023-07-31T03:54:34;99899.56;;;23.73;51.12
12182;BME280;6154;51.550;12.138;2023-07-31T03:57:02;99897.91;;;23.72;50.92
12182;BME280;6154;51.550;12.138;2023-07-31T03:59:30;99893.44;;;23.79;50.98
12182;BME280;6154;51.550;12.138;2023-07-31T04:02:00;99899.88;;;23.78;51.18
12182;BME280;6154;51.550;12.138;2023-07-31T04:04:28;99895.63;;;23.61;52.53
12182;BME280;6154;51.550;12.138;2023-07-31T04:06:57;99885.28;;;23.64;52.05
12182;BME280;6154;51.550;12.138;2023-07-31T04:09:25;99893.00;;;23.75;50.86
12182;BME280;6154;51.550;12.138;2023-07-31T04:11:54;99891.47;;;23.73;51.72
12182;BME280;6154;51.550;12.138;2023-07-31T04:14:22;99891.66;;;23.71;51.46
12182;BME280;6154;51.550;12.138;2023-07-31T04:16:50;99895.37;;;23.70;51.35
12182;BME280;6154;51.550;12.138;2023-07-31T04:19:21;99893.81;;;23.76;51.63
12182;BME280;6154;51.550;12.138;2023-07-31T04:21:49;99894.81;;;23.52;53.04
12182;BME280;6154;51.550;12.138;2023-07-31T04:24:17;99889.69;;;23.65;51.98
12182;BME280;6154;51.550;12.138;2023-07-31T04:26:52;99898.34;;;23.61;52.54
12182;BME280;6154;51.550;12.138;2023-07-31T04:29:20;99898.88;;;23.56;53.17
12182;BME280;6154;51.550;12.138;2023-07-31T04:31:48;99899.69;;;23.57;53.25
12182;BME280;6154;51.550;12.138;2023-07-31T04:34:16;99888.91;;;23.57;53.15
12182;BME280;6154;51.550;12.138;2023-07-31T04:36:46;99887.88;;;23.58;53.10
12182;BME280;6154;51.550;12.138;2023-07-31T04:39:14;99887.88;;;23.58;53.60
12182;BME280;6154;51.550;12.138;2023-07-31T04:41:42;99886.37;;;23.55;53.99
12182;BME280;6154;51.550;12.138;2023-07-31T04:44:10;99883.16;;;23.60;53.05
12182;BME280;6154;51.550;12.138;2023-07-31T04:46:39;99885.16;;;23.58;53.27
12182;BME280;6154;51.550;12.138;2023-07-31T04:49:08;99884.56;;;23.47;54.72
12182;BME280;6154;51.550;12.138;2023-07-31T04:51:36;99882.62;;;23.33;55.69
12182;BME280;6154;51.550;12.138;2023-07-31T04:54:05;99882.41;;;23.43;54.18
12182;BME280;6154;51.550;12.138;2023-07-31T04:56:33;99889.00;;;23.40;54.51
12182;BME280;6154;51.550;12.138;2023-07-31T04:59:02;99886.63;;;23.45;54.28
12182;BME280;6154;51.550;12.138;2023-07-31T05:01:30;99885.28;;;23.41;54.32
12182;BME280;6154;51.550;12.138;2023-07-31T05:03:58;99887.09;;;23.49;54.03
12182;BME280;6154;51.550;12.138;2023-07-31T05:06:26;99892.03;;;23.45;54.15
12182;BME280;6154;51.550;12.138;2023-07-31T05:08:54;99884.44;;;23.41;54.46
12182;BME280;6154;51.550;12.138;2023-07-31T05:11:24;99897.66;;;23.36;54.63
12182;BME280;6154;51.550;12.138;2023-07-31T05:13:52;99896.09;;;23.41;55.00
12182;BME280;6154;51.550;12.138;2023-07-31T05:16:20;99895.63;;;23.38;55.29
12182;BME280;6154;51.550;12.138;2023-07-31T05:18:48;99887.34;;;23.39;54.54
12182;BME280;6154;51.550;12.138;2023-07-31T05:21:17;99884.69;;;23.31;55.34
12182;BME280;6154;51.550;12.138;2023-07-31T05:23:45;99884.69;;;23.31;55.98
12182;BME280;6154;51.550;12.138;2023-07-31T05:26:14;99889.25;;;23.31;55.87
12182;BME280;6154;51.550;12.138;2023-07-31T05:28:46;99890.94;;;23.32;55.80
12182;BME280;6154;51.550;12.138;2023-07-31T05:31:14;99886.78;;;23.21;57.90
12182;BME280;6154;51.550;12.138;2023-07-31T05:33:42;99893.22;;;23.20;57.11
12182;BME280;6154;51.550;12.138;2023-07-31T05:36:11;99894.19;;;23.27;56.18
12182;BME280;6154;51.550;12.138;2023-07-31T05:38:39;99888.78;;;23.27;55.66
12182;BME280;6154;51.550;12.138;2023-07-31T05:41:09;99885.06;;;23.28;56.57
12182;BME280;6154;51.550;12.138;2023-07-31T05:43:37;99888.41;;;23.30;56.63
12182;BME280;6154;51.550;12.138;2023-07-31T05:46:07;99892.78;;;23.31;56.25
12182;BME280;6154;51.550;12.138;2023-07-31T05:48:36;99889.72;;;23.34;56.89
12182;BME280;6154;51.550;12.138;2023-07-31T05:51:04;99890.81;;;23.48;56.13
12182;BME280;6154;51.550;12.138;2023-07-31T05:53:32;99887.75;;;23.51;55.12
12182;BME280;6154;51.550;12.138;2023-07-31T05:56:00;99892.88;;;23.46;56.73
12182;BME280;6154;51.550;12.138;2023-07-31T05:58:28;99888.94;;;23.48;55.87
12182;BME280;6154;51.550;12.138;2023-07-31T06:00:56;99884.91;;;23.44;56.88
12182;BME280;6154;51.550;12.138;2023-07-31T06:03:26;99885.44;;;23.25;57.97
12182;BME280;6154;51.550;12.138;2023-07-31T06:05:54;99879.50;;;23.44;57.28
12182;BME280;6154;51.550;12.138;2023-07-31T06:08:23;99889.22;;;23.53;56.24
12182;BME280;6154;51.550;12.138;2023-07-31T06:10:51;99887.84;;;23.66;55.45
12182;BME280;6154;51.550;12.138;2023-07-31T06:13:19;99889.13;;;23.70;55.45
12182;BME280;6154;51.550;12.138;2023-07-31T06:15:47;99895.84;;;23.74;56.30
12182;BME280;6154;51.550;12.138;2023-07-31T06:18:15;99892.22;;;23.82;55.04
12182;BME280;6154;51.550;12.138;2023-07-31T06:20:45;99888.94;;;23.71;57.15
12182;BME280;6154;51.550;12.138;2023-07-31T06:23:14;99891.84;;;23.85;56.23
12182;BME280;6154;51.550;12.138;2023-07-31T06:25:42;99884.16;;;23.96;55.39
12182;BME280;6154;51.550;12.138;2023-07-31T06:28:10;99880.63;;;23.96;55.61
12182;BME280;6154;51.550;12.138;2023-07-31T06:30:39;99877.94;;;23.96;56.09
12182;BME280;6154;51.550;12.138;2023-07-31T06:33:07;99883.41;;;24.02;55.45
12182;BME280;6154;51.550;12.138;2023-07-31T06:35:36;99883.22;;;23.89;56.70
12182;BME280;6154;51.550;12.138;2023-07-31T06:38:05;99887.53;;;23.98;56.56
12182;BME280;6154;51.550;12.138;2023-07-31T06:40:33;99892.09;;;23.98;56.11
12182;BME280;6154;51.550;12.138;2023-07-31T06:43:02;99889.19;;;23.99;55.49
12182;BME280;6154;51.550;12.138;2023-07-31T06:45:35;99891.59;;;23.94;56.21
12182;BME280;6154;51.550;12.138;2023-07-31T06:48:03;99892.47;;;24.09;55.30
12182;BME280;6154;51.550;12.138;2023-07-31T06:50:32;99890.41;;;23.97;56.68
12182;BME280;6154;51.550;12.138;2023-07-31T06:53:00;99894.87;;;24.04;56.07
12182;BME280;6154;51.550;12.138;2023-07-31T06:55:30;99891.72;;;24.01;55.61
12182;BME280;6154;51.550;12.138;2023-07-31T06:57:58;99897.44;;;24.06;55.56
12182;BME280;6154;51.550;12.138;2023-07-31T07:00:27;99899.84;;;24.16;54.72
12182;BME280;6154;51.550;12.138;2023-07-31T07:02:55;99898.84;;;24.17;54.85
12182;BME280;6154;51.550;12.138;2023-07-31T07:05:23;99890.03;;;24.15;55.22
12182;BME280;6154;51.550;12.138;2023-07-31T07:07:52;99896.00;;;24.25;54.61
12182;BME280;6154;51.550;12.138;2023-07-31T07:10:20;99894.19;;;24.25;54.73
12182;BME280;6154;51.550;12.138;2023-07-31T07:12:49;99893.78;;;24.28;54.70
12182;BME280;6154;51.550;12.138;2023-07-31T07:15:20;99894.72;;;24.21;55.23
12182;BME280;6154;51.550;12.138;2023-07-31T07:17:48;99903.56;;;24.15;55.44
12182;BME280;6154;51.550;12.138;2023-07-31T07:20:16;99892.31;;;24.26;54.96
12182;BME280;6154;51.550;12.138;2023-07-31T07:22:47;99900.34;;;24.34;54.84
12182;BME280;6154;51.550;12.138;2023-07-31T07:25:15;99888.13;;;24.38;55.38
12182;BME280;6154;51.550;12.138;2023-07-31T07:27:43;99897.00;;;24.47;55.50
12182;BME280;6154;51.550;12.138;2023-07-31T07:30:13;99892.97;;;24.57;54.74
12182;BME280;6154;51.550;12.138;2023-07-31T07:32:42;99895.69;;;24.57;55.16
12182;BME280;6154;51.550;12.138;2023-07-31T07:35:11;99891.66;;;24.53;55.91
12182;BME280;6154;51.550;12.138;2023-07-31T07:37:39;99881.88;;;24.67;54.80
12182;BME280;6154;51.550;12.138;2023-07-31T07:40:08;99887.44;;;24.80;54.36
12182;BME280;6154;51.550;12.138;2023-07-31T07:42:36;99882.56;;;24.90;54.26
12182;BME280;6154;51.550;12.138;2023-07-31T07:45:06;99880.97;;;24.81;54.66
12182;BME280;6154;51.550;12.138;2023-07-31T07:47:35;99881.97;;;24.95;54.38
12182;BME280;6154;51.550;12.138;2023-07-31T07:50:04;99886.94;;;25.06;54.47
12182;BME280;6154;51.550;12.138;2023-07-31T07:52:36;99888.97;;;25.04;54.48
12182;BME280;6154;51.550;12.138;2023-07-31T07:55:04;99884.94;;;25.15;54.09
12182;BME280;6154;51.550;12.138;2023-07-31T07:57:33;99888.63;;;25.07;54.28
12182;BME280;6154;51.550;12.138;2023-07-31T08:00:01;99883.84;;;25.09;54.06
12182;BME280;6154;51.550;12.138;2023-07-31T08:02:41;99879.81;;;25.05;54.08
12182;BME280;6154;51.550;12.138;2023-07-31T08:05:09;99881.66;;;25.19;53.91
12182;BME280;6154;51.550;12.138;2023-07-31T08:07:37;99880.53;;;25.35;53.64
12182;BME280;6154;51.550;12.138;2023-07-31T08:10:06;99875.19;;;25.42;53.70
12182;BME280;6154;51.550;12.138;2023-07-31T08:12:34;99873.06;;;25.59;53.44
12182;BME280;6154;51.550;12.138;2023-07-31T08:15:03;99879.91;;;25.55;53.61
12182;BME280;6154;51.550;12.138;2023-07-31T08:17:31;99872.03;;;25.60;53.48
12182;BME280;6154;51.550;12.138;2023-07-31T08:20:01;99872.22;;;25.58;53.51
12182;BME280;6154;51.550;12.138;2023-07-31T08:22:29;99869.75;;;25.63;53.37
12182;BME280;6154;51.550;12.138;2023-07-31T08:24:57;99870.28;;;25.73;53.05
12182;BME280;6154;51.550;12.138;2023-07-31T08:27:25;99872.66;;;25.83;52.86
12182;BME280;6154;51.550;12.138;2023-07-31T08:29:53;99872.47;;;25.85;52.90
12182;BME280;6154;51.550;12.138;2023-07-31T08:32:21;99870.28;;;26.01;52.63
12182;BME280;6154;51.550;12.138;2023-07-31T08:34:50;99888.38;;;25.88;52.71
12182;BME280;6154;51.550;12.138;2023-07-31T08:37:19;99877.81;;;25.99;52.61
12182;BME280;6154;51.550;12.138;2023-07-31T08:39:47;99877.16;;;25.97;52.61
12182;BME280;6154;51.550;12.138;2023-07-31T08:42:15;99877.03;;;26.12;52.44
12182;BME280;6154;51.550;12.138;2023-07-31T08:44:44;99875.56;;;26.10;52.20
12182;BME280;6154;51.550;12.138;2023-07-31T08:47:13;99870.19;;;26.16;52.58
12182;BME280;6154;51.550;12.138;2023-07-31T08:49:43;99872.09;;;25.88;52.39
12182;BME280;6154;51.550;12.138;2023-07-31T08:52:13;99868.22;;;26.03;52.16
12182;BME280;6154;51.550;12.138;2023-07-31T08:54:43;99870.31;;;26.36;52.17
12182;BME280;6154;51.550;12.138;2023-07-31T08:57:12;99866.38;;;26.39;51.48
12182;BME280;6154;51.550;12.138;2023-07-31T08:59:41;99873.63;;;26.31;52.05
12182;BME280;6154;51.550;12.138;2023-07-31T09:02:12;99873.31;;;26.48;51.72
12182;BME280;6154;51.550;12.138;2023-07-31T09:04:43;99873.13;;;26.49;50.55
12182;BME280;6154;51.550;12.138;2023-07-31T09:07:12;99878.50;;;26.43;51.63
12182;BME280;6154;51.550;12.138;2023-07-31T09:09:41;99873.88;;;26.36;51.73
12182;BME280;6154;51.550;12.138;2023-07-31T09:12:11;99882.53;;;26.25;52.23
12182;BME280;6154;51.550;12.138;2023-07-31T09:14:40;99886.72;;;26.21;52.25
12182;BME280;6154;51.550;12.138;2023-07-31T09:17:10;99881.75;;;26.31;52.34
12182;BME280;6154;51.550;12.138;2023-07-31T09:19:38;99883.84;;;26.29;52.06
12182;BME280;6154;51.550;12.138;2023-07-31T09:22:06;99883.78;;;26.23;52.26
12182;BME280;6154;51.550;12.138;2023-07-31T09:24:35;99876.28;;;26.25;52.26
12182;BME280;6154;51.550;12.138;2023-07-31T09:27:03;99878.56;;;26.21;52.18
12182;BME280;6154;51.550;12.138;2023-07-31T09:29:33;99881.28;;;26.21;52.34
12182;BME280;6154;51.550;12.138;2023-07-31T09:32:01;99878.81;;;26.26;52.37
12182;BME280;6154;51.550;12.138;2023-07-31T09:34:31;99881.13;;;26.29;51.96
12182;BME280;6154;51.550;12.138;2023-07-31T09:37:05;99875.91;;;26.34;51.83
12182;BME280;6154;51.550;12.138;2023-07-31T09:39:45;99879.03;;;26.31;51.98
12182;BME280;6154;51.550;12.138;2023-07-31T09:42:13;99874.25;;;26.33;52.62
12182;BME280;6154;51.550;12.138;2023-07-31T09:44:43;99884.06;;;26.34;51.83
12182;BME280;6154;51.550;12.138;2023-07-31T09:47:21;99886.44;;;26.38;52.04
12182;BME280;6154;51.550;12.138;2023-07-31T09:49:52;99881.00;;;26.38;52.62
12182;BME280;6154;51.550;12.138;2023-07-31T09:52:20;99877.25;;;26.39;51.99
12182;BME280;6154;51.550;12.138;2023-07-31T09:54:49;99870.78;;;26.40;51.96
12182;BME280;6154;51.550;12.138;2023-07-31T09:57:17;99864.56;;;26.46;51.75
12182;BME280;6154;51.550;12.138;2023-07-31T09:59:48;99864.16;;;26.49;51.76
12182;BME280;6154;51.550;12.138;2023-07-31T10:02:21;99849.69;;;26.42;51.93
12182;BME280;6154;51.550;12.138;2023-07-31T10:04:50;99855.75;;;26.44;52.09
12182;BME280;6154;51.550;12.138;2023-07-31T10:07:20;99857.25;;;26.53;51.64
12182;BME280;6154;51.550;12.138;2023-07-31T10:09:51;99844.81;;;26.72;51.49
12182;BME280;6154;51.550;12.138;2023-07-31T10:12:22;99843.66;;;27.01;51.65
12182;BME280;6154;51.550;12.138;2023-07-31T10:14:54;99846.22;;;27.35;51.54
12182;BME280;6154;51.550;12.138;2023-07-31T10:17:23;99839.34;;;27.39;51.16
12182;BME280;6154;51.550;12.138;2023-07-31T10:19:51;99833.06;;;27.45;51.24
12182;BME280;6154;51.550;12.138;2023-07-31T10:22:21;99840.81;;;27.48;51.20
12182;BME280;6154;51.550;12.138;2023-07-31T10:24:50;99833.47;;;27.29;50.94
12182;BME280;6154;51.550;12.138;2023-07-31T10:27:19;99834.31;;;27.23;50.97
12182;BME280;6154;51.550;12.138;2023-07-31T10:29:48;99832.84;;;27.34;50.58
12182;BME280;6154;51.550;12.138;2023-07-31T10:32:19;99822.81;;;27.21;50.75
12182;BME280;6154;51.550;12.138;2023-07-31T10:34:49;99825.53;;;27.41;50.79
12182;BME280;6154;51.550;12.138;2023-07-31T10:37:25;99817.59;;;27.53;50.30
12182;BME280;6154;51.550;12.138;2023-07-31T10:39:59;99818.66;;;27.58;49.96
12182;BME280;6154;51.550;12.138;2023-07-31T10:42:29;99806.94;;;27.71;49.88
12182;BME280;6154;51.550;12.138;2023-07-31T10:44:59;99806.94;;;27.77;50.13
12182;BME280;6154;51.550;12.138;2023-07-31T10:47:29;99801.22;;;28.05;49.59
12182;BME280;6154;51.550;12.138;2023-07-31T10:50:16;99786.31;;;28.21;49.43
12182;BME280;6154;51.550;12.138;2023-07-31T10:52:50;99796.03;;;27.97;48.17
12182;BME280;6154;51.550;12.138;2023-07-31T10:55:27;99796.00;;;28.04;48.09
12182;BME280;6154;51.550;12.138;2023-07-31T10:57:57;99793.53;;;28.54;48.15
12182;BME280;6154;51.550;12.138;2023-07-31T11:00:27;99793.38;;;28.42;49.31
12182;BME280;6154;51.550;12.138;2023-07-31T11:02:59;99782.84;;;28.59;48.73
12182;BME280;6154;51.550;12.138;2023-07-31T11:05:47;99776.09;;;28.61;48.09
12182;BME280;6154;51.550;12.138;2023-07-31T11:08:17;99778.22;;;28.59;46.84
12182;BME280;6154;51.550;12.138;2023-07-31T11:10:47;99774.31;;;28.80;46.76
12182;BME280;6154;51.550;12.138;2023-07-31T11:13:16;99769.84;;;28.99;48.64
12182;BME280;6154;51.550;12.138;2023-07-31T11:15:44;99759.84;;;28.86;48.68
12182;BME280;6154;51.550;12.138;2023-07-31T11:18:14;99771.59;;;28.80;47.14
12182;BME280;6154;51.550;12.138;2023-07-31T11:20:44;99762.38;;;29.13;48.89
12182;BME280;6154;51.550;12.138;2023-07-31T11:23:12;99752.66;;;29.24;47.25
12182;BME280;6154;51.550;12.138;2023-07-31T11:25:40;99752.47;;;29.43;46.79
12182;BME280;6154;51.550;12.138;2023-07-31T11:28:10;99743.69;;;29.85;47.58
12182;BME280;6154;51.550;12.138;2023-07-31T11:30:40;99737.28;;;29.54;45.36
12182;BME280;6154;51.550;12.138;2023-07-31T11:33:10;99740.50;;;29.69;45.98
12182;BME280;6154;51.550;12.138;2023-07-31T11:35:44;99741.72;;;29.73;47.03
12182;BME280;6154;51.550;12.138;2023-07-31T11:38:21;99745.03;;;29.75;45.17
12182;BME280;6154;51.550;12.138;2023-07-31T11:40:50;99749.56;;;29.88;44.98
12182;BME280;6154;51.550;12.138;2023-07-31T11:43:19;99756.97;;;29.99;46.81
12182;BME280;6154;51.550;12.138;2023-07-31T11:45:49;99759.53;;;29.94;46.88
12182;BME280;6154;51.550;12.138;2023-07-31T11:48:21;99764.53;;;29.61;45.29
12182;BME280;6154;51.550;12.138;2023-07-31T11:50:52;99759.94;;;29.80;44.85
12182;BME280;6154;51.550;12.138;2023-07-31T11:53:23;99752.47;;;29.43;44.87
12182;BME280;6154;51.550;12.138;2023-07-31T11:55:54;99753.06;;;29.52;44.36
12182;BME280;6154;51.550;12.138;2023-07-31T11:58:22;99747.47;;;29.84;45.57
12182;BME280;6154;51.550;12.138;2023-07-31T12:00:51;99747.47;;;29.84;45.75
12182;BME280;6154;51.550;12.138;2023-07-31T12:03:20;99744.63;;;29.97;45.52
12182;BME280;6154;51.550;12.138;2023-07-31T12:05:48;99745.34;;;30.04;44.51
12182;BME280;6154;51.550;12.138;2023-07-31T12:08:20;99736.09;;;30.05;45.91
12182;BME280;6154;51.550;12.138;2023-07-31T12:10:50;99741.91;;;29.97;44.80
12182;BME280;6154;51.550;12.138;2023-07-31T12:13:20;99736.66;;;30.32;45.85
12182;BME280;6154;51.550;12.138;2023-07-31T12:15:54;99742.81;;;30.27;44.20
12182;BME280;6154;51.550;12.138;2023-07-31T12:18:24;99739.91;;;30.22;44.44
12182;BME280;6154;51.550;12.138;2023-07-31T12:20:54;99730.25;;;30.08;45.88
12182;BME280;6154;51.550;12.138;2023-07-31T12:23:25;99726.81;;;30.13;45.17
12182;BME280;6154;51.550;12.138;2023-07-31T12:26:02;99717.34;;;30.45;44.08
12182;BME280;6154;51.550;12.138;2023-07-31T12:28:35;99719.44;;;30.61;42.83
12182;BME280;6154;51.550;12.138;2023-07-31T12:31:04;99712.25;;;30.49;42.76
12182;BME280;6154;51.550;12.138;2023-07-31T12:33:34;99715.72;;;30.56;42.91
12182;BME280;6154;51.550;12.138;2023-07-31T12:36:04;99718.56;;;30.79;44.35
12182;BME280;6154;51.550;12.138;2023-07-31T12:38:34;99708.69;;;30.67;43.06
12182;BME280;6154;51.550;12.138;2023-07-31T12:41:02;99730.34;;;30.31;43.42
12182;BME280;6154;51.550;12.138;2023-07-31T12:43:30;99705.97;;;30.48;44.45
12182;BME280;6154;51.550;12.138;2023-07-31T12:45:59;99711.19;;;30.50;42.07
12182;BME280;6154;51.550;12.138;2023-07-31T12:48:27;99722.34;;;30.67;42.51
12182;BME280;6154;51.550;12.138;2023-07-31T12:50:55;99708.81;;;30.23;41.84
12182;BME280;6154;51.550;12.138;2023-07-31T12:53:24;99709.09;;;30.33;42.93
12182;BME280;6154;51.550;12.138;2023-07-31T12:55:53;99708.47;;;30.50;44.25
12182;BME280;6154;51.550;12.138;2023-07-31T12:58:22;99707.91;;;29.74;42.19
12182;BME280;6154;51.550;12.138;2023-07-31T13:00:51;99709.25;;;30.39;43.60
12182;BME280;6154;51.550;12.138;2023-07-31T13:03:19;99678.75;;;30.42;42.64
12182;BME280;6154;51.550;12.138;2023-07-31T13:05:47;99677.91;;;30.41;43.07
12182;BME280;6154;51.550;12.138;2023-07-31T13:08:15;99667.84;;;30.53;42.94
12182;BME280;6154;51.550;12.138;2023-07-31T13:10:44;99675.97;;;30.30;42.34